Time;durP1;ratioP1;P1;durP2;ratioP2;P2;SDS_P1;SDS_P2;PMS_P1;PMS_P2;Temp;Humidity;BMP_temperature;BMP_pressure;BME280_temperature;BME280_humidity;BME280_pressure;Samples;Min_cycle;Max_cycle;Signal;HPM_P1;HPM_P2
2022/04/29 00:00:07;;;;;;;13.43;7.97;;;;;;;6.68;54.85;99592.16;5089094;28;20036;-69
2022/04/29 00:02:34;;;;;;;14.43;7.97;;;;;;;6.66;54.80;99592.38;5088572;28;20058;-68
2022/04/29 00:05:00;;;;;;;13.07;8.48;;;;;;;6.64;55.38;99583.63;5089369;28;20032;-69
2022/04/29 00:07:25;;;;;;;17.98;9.40;;;;;;;6.60;55.28;99587.91;5089165;28;20039;-69
2022/04/29 00:09:51;;;;;;;17.63;9.95;;;;;;;6.58;55.11;99586.50;5087432;28;20040;-68
2022/04/29 00:12:16;;;;;;;13.85;8.80;;;;;;;6.53;55.48;99585.31;5087648;28;20100;-70
2022/04/29 00:14:42;;;;;;;15.25;9.73;;;;;;;6.53;56.08;99585.31;5086374;28;20027;-69
2022/04/29 00:17:08;;;;;;;17.13;9.75;;;;;;;6.53;55.79;99585.31;5086693;28;20024;-70
2022/04/29 00:19:33;;;;;;;16.10;9.63;;;;;;;6.51;55.90;99589.38;5081545;28;20161;-70
2022/04/29 00:21:59;;;;;;;16.95;9.85;;;;;;;6.46;55.79;99581.09;5087521;28;20032;-70
2022/04/29 00:24:25;;;;;;;17.25;10.35;;;;;;;6.42;56.41;99591.63;5086845;28;20055;-69
2022/04/29 00:26:50;;;;;;;16.73;10.45;;;;;;;6.36;55.74;99585.25;5087466;28;20117;-69
2022/04/29 00:29:16;;;;;;;20.13;11.90;;;;;;;6.33;56.62;99584.88;5090675;28;20032;-70
2022/04/29 00:31:41;;;;;;;16.42;11.23;;;;;;;6.29;56.34;99584.56;5088113;28;20032;-70
2022/04/29 00:34:07;;;;;;;19.23;11.43;;;;;;;6.29;56.38;99581.00;5088621;28;20035;-69
2022/04/29 00:36:33;;;;;;;20.63;12.55;;;;;;;6.28;56.78;99579.34;5088715;28;20065;-69
2022/04/29 00:38:58;;;;;;;27.08;12.90;;;;;;;6.27;56.70;99580.44;5088272;28;20474;-70
2022/04/29 00:41:24;;;;;;;21.90;12.75;;;;;;;6.27;56.74;99577.69;5088306;28;20024;-70
2022/04/29 00:44:04;;;;;;;22.08;12.73;;;;;;;6.27;56.49;99574.97;5091503;28;20474;-70
2022/04/29 00:46:36;;;;;;;22.95;12.23;;;;;;;6.26;57.16;99579.59;5091158;28;20051;-70
2022/04/29 00:49:03;;;;;;;27.40;13.88;;;;;;;6.26;57.01;99568.69;5092972;28;20032;-70
2022/04/29 00:51:29;;;;;;;30.27;14.48;;;;;;;6.33;57.46;99566.66;5090692;28;20499;-70
2022/04/29 00:53:56;;;;;;;34.33;15.18;;;;;;;6.38;57.79;99571.38;5090544;28;20045;-70
2022/04/29 00:56:23;;;;;;;28.88;14.32;;;;;;;6.40;57.67;99577.41;5090971;28;20867;-69
2022/04/29 00:59:25;;;;;;;31.45;14.95;;;;;;;6.38;57.19;99572.22;5089498;28;20101;-69
2022/04/29 01:01:51;;;;;;;34.10;15.57;;;;;;;6.39;57.59;99567.56;5054971;28;20040;-70
2022/04/29 01:04:32;;;;;;;43.35;17.13;;;;;;;6.35;57.07;99571.84;5091681;28;20047;-70
2022/04/29 01:06:58;;;;;;;41.28;16.10;;;;;;;6.31;56.86;99570.72;5092080;28;20106;-71
2022/04/29 01:09:23;;;;;;;45.80;16.98;;;;;;;6.28;57.70;99566.56;5088610;28;20549;-70
2022/04/29 01:11:50;;;;;;;37.63;15.18;;;;;;;6.32;57.29;99566.88;5084852;28;20497;-70
2022/04/29 01:14:16;;;;;;;41.05;16.40;;;;;;;6.26;57.45;99563.25;5090963;28;20020;-70
2022/04/29 01:16:41;;;;;;;40.97;15.55;;;;;;;6.23;57.50;99566.44;5089814;28;20362;-70
2022/04/29 01:19:07;;;;;;;42.40;16.27;;;;;;;6.21;57.19;99572.13;5086347;28;20031;-70
2022/04/29 01:21:33;;;;;;;41.10;16.05;;;;;;;6.22;57.70;99565.63;5090955;28;20064;-70
2022/04/29 01:23:58;;;;;;;39.22;15.48;;;;;;;6.20;58.59;99561.47;5089567;28;20538;-70
2022/04/29 01:26:24;;;;;;;33.90;14.68;;;;;;;6.17;58.20;99557.34;5084729;28;20031;-70
2022/04/29 01:28:51;;;;;;;40.55;15.55;;;;;;;6.14;58.18;99560.53;5090744;28;20028;-70
2022/04/29 01:31:21;;;;;;;35.28;14.80;;;;;;;6.14;58.17;99552.38;5088934;28;20035;-70
2022/04/29 01:33:49;;;;;;;31.25;14.38;;;;;;;6.15;58.49;99562.19;5088224;28;20017;-70
2022/04/29 01:36:14;;;;;;;31.17;13.98;;;;;;;6.16;58.51;99554.84;5088325;28;20106;-69
2022/04/29 01:38:40;;;;;;;40.33;16.27;;;;;;;6.16;58.44;99552.13;5091195;28;20074;-70
2022/04/29 01:41:06;;;;;;;31.52;13.35;;;;;;;6.17;58.26;99557.34;5087835;28;20036;-70
2022/04/29 01:43:33;;;;;;;30.90;14.05;;;;;;;6.17;57.91;99549.16;5090871;28;20054;-70
2022/04/29 01:45:58;;;;;;;30.73;14.65;;;;;;;6.20;58.42;99554.13;5091732;28;20525;-69
2022/04/29 01:48:25;;;;;;;26.27;13.55;;;;;;;6.23;58.12;99550.09;5092044;28;20024;-70
2022/04/29 01:50:50;;;;;;;31.50;13.60;;;;;;;6.26;58.49;99549.63;5091223;28;20111;-70
2022/04/29 01:53:16;;;;;;;31.52;14.13;;;;;;;6.28;58.09;99546.66;5089519;28;20111;-70
2022/04/29 01:55:41;;;;;;;28.23;14.00;;;;;;;6.32;57.87;99550.53;5089149;28;20020;-70
2022/04/29 01:58:07;;;;;;;26.35;13.10;;;;;;;6.33;58.04;99550.31;5090204;28;20517;-71
2022/04/29 02:00:32;;;;;;;25.90;13.80;;;;;;;6.30;57.92;99541.81;5089334;28;20794;-71
2022/04/29 02:02:58;;;;;;;25.85;13.82;;;;;;;6.23;57.74;99539.19;5090960;28;20093;-71
2022/04/29 02:05:24;;;;;;;22.60;14.25;;;;;;;6.18;58.08;99548.09;5088639;28;20270;-70
2022/04/29 02:07:49;;;;;;;21.73;13.05;;;;;;;6.14;57.87;99546.94;5088291;28;20024;-70
2022/04/29 02:10:15;;;;;;;27.45;14.38;;;;;;;6.06;58.13;99541.84;5091368;28;20035;-70
2022/04/29 02:12:41;;;;;;;23.98;14.20;;;;;;;6.05;58.42;99549.19;5085565;28;20067;-70
2022/04/29 02:15:07;;;;;;;23.95;13.10;;;;;;;6.00;58.36;99545.47;5088221;28;20036;-71
2022/04/29 02:17:33;;;;;;;20.48;11.90;;;;;;;5.98;58.63;99545.75;5089901;28;20028;-70
2022/04/29 02:19:58;;;;;;;19.85;12.00;;;;;;;5.94;58.36;99548.09;5089742;28;20363;-70
2022/04/29 02:22:23;;;;;;;21.92;11.70;;;;;;;5.93;58.43;99551.06;5086800;28;20027;-70
2022/04/29 02:24:49;;;;;;;21.92;13.25;;;;;;;5.89;59.23;99550.72;5089472;28;20067;-70
2022/04/29 02:27:14;;;;;;;21.30;12.85;;;;;;;5.83;59.14;99548.97;5089347;28;20062;-70
2022/04/29 02:29:40;;;;;;;20.52;11.60;;;;;;;5.82;58.70;99548.13;5090469;28;20028;-71
2022/04/29 02:32:06;;;;;;;24.55;12.88;;;;;;;5.82;59.25;99550.84;5088976;28;20031;-70
2022/04/29 02:34:31;;;;;;;21.27;11.68;;;;;;;5.87;58.97;99546.56;5087612;28;20029;-70
2022/04/29 02:36:56;;;;;;;22.23;13.50;;;;;;;5.82;58.64;99545.38;5088934;28;20102;-70
2022/04/29 02:39:22;;;;;;;24.35;13.75;;;;;;;5.76;58.75;99540.91;5089485;28;20030;-70
2022/04/29 02:41:48;;;;;;;23.27;13.13;;;;;;;5.68;59.23;99546.72;5088106;28;20101;-70
2022/04/29 02:44:13;;;;;;;43.45;19.80;;;;;;;5.64;59.34;99545.53;5089638;28;20032;-70
2022/04/29 02:49:24;;;;;;;36.67;15.75;;;;;;;5.49;59.63;99532.41;5091126;28;20122;-70
2022/04/29 02:51:49;;;;;;;24.98;13.27;;;;;;;5.44;59.98;99532.28;5086894;28;20134;-70
2022/04/29 02:54:15;;;;;;;24.85;13.38;;;;;;;5.41;60.01;99535.47;5088193;28;20024;-70
2022/04/29 02:56:41;;;;;;;19.20;12.60;;;;;;;5.41;59.54;99535.47;5090487;28;20103;-70
2022/04/29 02:59:06;;;;;;;22.90;13.25;;;;;;;5.39;59.44;99532.97;5090820;28;20132;-70
2022/04/29 03:01:33;;;;;;;22.35;12.32;;;;;;;5.39;59.60;99537.59;5089341;28;20447;-70
2022/04/29 03:03:59;;;;;;;25.05;12.90;;;;;;;5.33;60.09;99536.63;5089326;28;20035;-70
2022/04/29 03:06:25;;;;;;;25.00;12.80;;;;;;;5.26;59.56;99547.63;5089961;28;20108;-70
2022/04/29 03:08:50;;;;;;;20.88;12.00;;;;;;;5.19;60.03;99546.91;5089386;28;20118;-70
2022/04/29 03:11:15;;;;;;;22.73;12.35;;;;;;;5.16;59.57;99544.66;5088118;28;20042;-70
2022/04/29 03:13:41;;;;;;;22.00;12.45;;;;;;;5.16;59.81;99540.06;5088072;28;20482;-70
2022/04/29 03:16:06;;;;;;;22.27;13.13;;;;;;;5.15;60.32;99549.28;5087811;28;20043;-70
2022/04/29 03:18:31;;;;;;;22.02;13.23;;;;;;;5.16;60.28;99548.22;5089785;28;20024;-69
2022/04/29 03:20:57;;;;;;;20.05;11.57;;;;;;;5.19;59.70;99552.34;5088176;28;20077;-70
2022/04/29 03:23:23;;;;;;;18.77;11.77;;;;;;;5.18;59.93;99548.81;5089892;28;20115;-70
2022/04/29 03:25:49;;;;;;;96.70;44.85;;;;;;;5.18;59.99;99554.25;5089270;28;20032;-70
2022/04/29 03:28:15;;;;;;;34.00;19.92;;;;;;;5.24;61.51;99559.81;5089871;28;20024;-70
2022/04/29 03:30:41;;;;;;;30.77;15.38;;;;;;;5.27;61.88;99549.28;5089626;28;20028;-71
2022/04/29 03:33:08;;;;;;;22.70;12.93;;;;;;;5.30;61.02;99543.38;5089112;28;20082;-70
2022/04/29 03:35:45;;;;;;;24.88;13.07;;;;;;;5.33;61.18;99555.66;5089740;28;20032;-70
2022/04/29 03:38:11;;;;;;;18.98;11.65;;;;;;;5.35;61.10;99559.81;5088898;28;20119;-70
2022/04/29 03:40:36;;;;;;;21.83;12.82;;;;;;;5.35;61.48;99551.66;5089665;28;20107;-69
2022/04/29 03:43:02;;;;;;;24.63;13.63;;;;;;;5.36;61.46;99545.16;5089335;28;20504;-70
2022/04/29 03:45:28;;;;;;;23.35;13.77;;;;;;;5.41;61.52;99547.16;5090272;28;20044;-70
2022/04/29 03:47:54;;;;;;;25.75;14.38;;;;;;;5.46;61.20;99551.91;5088412;28;20402;-70
2022/04/29 03:50:23;;;;;;;23.55;13.80;;;;;;;5.49;61.08;99552.25;5089855;28;20043;-70
2022/04/29 03:52:58;;;;;;;28.42;14.18;;;;;;;5.55;62.05;99558.66;5087287;28;20529;-71
2022/04/29 03:55:29;;;;;;;30.52;15.65;;;;;;;5.63;62.08;99558.28;5090102;28;20032;-71
2022/04/29 03:57:55;;;;;;;30.20;15.93;;;;;;;5.70;61.79;99557.34;5085095;28;20035;-70
2022/04/29 04:00:25;;;;;;;26.52;14.57;;;;;;;5.78;61.50;99557.00;5089715;28;20028;-70
2022/04/29 04:02:51;;;;;;;24.17;12.77;;;;;;;5.88;61.67;99561.84;5090465;28;20040;-70
2022/04/29 04:05:17;;;;;;;26.15;14.98;;;;;;;5.94;61.75;99564.44;5089912;28;20024;-70
2022/04/29 04:07:45;;;;;;;27.67;15.82;;;;;;;6.00;61.80;99570.00;5089795;28;20103;-70
2022/04/29 04:10:11;;;;;;;30.50;16.65;;;;;;;6.07;61.53;99563.41;5090126;28;20028;-70
2022/04/29 04:12:48;;;;;;;35.08;17.00;;;;;;;6.18;61.65;99572.63;5089765;28;20028;-70
2022/04/29 04:15:16;;;;;;;29.52;15.85;;;;;;;6.23;61.51;99566.44;5090225;28;20028;-70
2022/04/29 04:17:42;;;;;;;25.25;14.40;;;;;;;6.31;61.54;99563.34;5093728;28;20507;-70
2022/04/29 04:20:12;;;;;;;27.50;15.25;;;;;;;6.34;61.42;99568.31;5090926;28;20452;-70
2022/04/29 04:22:37;;;;;;;24.05;14.40;;;;;;;6.40;61.32;99571.97;5091483;28;20039;-71
2022/04/29 04:25:04;;;;;;;25.17;14.45;;;;;;;6.41;61.15;99570.88;5093641;28;20020;-70
2022/04/29 04:27:30;;;;;;;21.45;13.82;;;;;;;6.44;61.91;99566.88;5092985;28;20450;-70
2022/04/29 04:29:56;;;;;;;23.92;13.88;;;;;;;6.47;61.37;99566.41;5093472;28;20032;-70
2022/04/29 04:32:22;;;;;;;22.63;13.43;;;;;;;6.54;61.21;99572.50;5091044;28;20123;-69
2022/04/29 04:34:50;;;;;;;27.25;14.68;;;;;;;6.57;61.54;99571.22;5090771;28;20028;-70
2022/04/29 04:37:20;;;;;;;30.67;16.73;;;;;;;6.67;61.95;99577.69;5091356;28;20028;-70
2022/04/29 04:39:45;;;;;;;28.73;15.82;;;;;;;6.74;61.29;99574.81;5093279;28;20020;-70
2022/04/29 04:42:11;;;;;;;34.03;17.30;;;;;;;6.78;61.27;99570.53;5091326;28;20505;-70
2022/04/29 04:44:36;;;;;;;28.65;16.35;;;;;;;6.85;61.31;99575.84;5092098;28;20032;-70
2022/04/29 04:47:06;;;;;;;28.30;16.38;;;;;;;6.91;61.63;99571.31;5093304;28;20048;-70
2022/04/29 04:49:32;;;;;;;27.83;14.77;;;;;;;6.99;61.63;99582.63;5093387;28;20063;-70
2022/04/29 04:51:58;;;;;;;30.67;17.67;;;;;;;7.10;61.60;99593.75;5091994;28;20032;-69
2022/04/29 04:54:23;;;;;;;46.25;23.33;;;;;;;7.15;61.18;99578.28;5091720;28;20432;-70
2022/04/29 04:56:48;;;;;;;53.53;25.13;;;;;;;7.19;61.09;99584.09;5091181;28;20389;-70
2022/04/29 04:59:14;;;;;;;38.97;20.52;;;;;;;7.33;61.19;99583.78;5093199;28;20058;-70
2022/04/29 05:01:39;;;;;;;27.45;16.13;;;;;;;7.48;61.05;99581.28;5092476;28;20031;-70
2022/04/29 05:04:05;;;;;;;23.25;14.57;;;;;;;7.58;60.85;99584.19;5090142;28;20390;-69
2022/04/29 05:06:30;;;;;;;27.63;14.90;;;;;;;7.69;60.89;99589.81;5092235;28;20454;-70
2022/04/29 05:08:56;;;;;;;31.88;17.15;;;;;;;7.73;60.65;99585.53;5091249;28;20028;-70
2022/04/29 05:11:21;;;;;;;22.98;13.95;;;;;;;7.83;60.60;99584.84;5090609;28;20024;-72
2022/04/29 05:13:46;;;;;;;30.85;16.77;;;;;;;7.97;60.24;99588.03;5091430;28;20466;-69
2022/04/29 05:16:12;;;;;;;22.85;12.75;;;;;;;8.10;60.35;99582.22;5091056;28;20107;-70
2022/04/29 05:18:37;;;;;;;22.98;12.27;;;;;;;8.28;60.33;99583.00;5090892;28;20032;-70
2022/04/29 05:21:03;;;;;;;21.42;12.80;;;;;;;8.37;60.14;99586.09;5090874;28;20116;-70
2022/04/29 05:23:29;;;;;;;26.42;14.35;;;;;;;8.52;59.72;99588.25;5090981;28;20626;-70
2022/04/29 05:25:54;;;;;;;20.38;12.77;;;;;;;8.71;59.89;99594.22;5090730;28;20024;-69
2022/04/29 05:28:20;;;;;;;21.55;12.70;;;;;;;8.86;58.96;99588.91;5090611;28;20055;-70
2022/04/29 05:30:45;;;;;;;23.60;12.70;;;;;;;8.98;59.27;99582.47;5090533;28;20470;-70
2022/04/29 05:33:11;;;;;;;21.50;13.65;;;;;;;9.11;58.61;99583.94;5087468;28;20024;-70
2022/04/29 05:35:39;;;;;;;24.27;13.13;;;;;;;9.27;58.72;99584.91;5089093;28;20497;-70
2022/04/29 05:38:05;;;;;;;17.70;11.35;;;;;;;9.35;57.52;99589.94;5088648;28;20545;-70
2022/04/29 05:43:15;;;;;;;18.75;11.40;;;;;;;9.53;57.51;99595.03;5088574;28;20062;-71
2022/04/29 05:45:40;;;;;;;21.75;12.82;;;;;;;9.62;56.82;99598.09;5090523;28;20044;-71
2022/04/29 05:48:06;;;;;;;23.73;12.60;;;;;;;9.70;57.38;99587.75;5091339;28;20043;-71
2022/04/29 05:50:31;;;;;;;21.15;12.20;;;;;;;9.76;56.96;99592.19;5090838;28;20036;-71
2022/04/29 05:52:57;;;;;;;31.33;16.08;;;;;;;9.77;56.07;99597.38;5091942;28;20470;-71
2022/04/29 05:55:22;;;;;;;26.00;14.02;;;;;;;9.83;55.95;99595.50;5093308;28;20477;-70
2022/04/29 05:57:48;;;;;;;49.53;21.80;;;;;;;9.86;56.22;99597.72;5090563;28;20047;-70
2022/04/29 06:00:14;;;;;;;30.45;17.00;;;;;;;9.97;56.35;99602.19;5091841;28;20363;-70
2022/04/29 06:02:40;;;;;;;20.30;12.48;;;;;;;10.05;55.75;99605.53;5090943;28;20085;-72
2022/04/29 06:05:06;;;;;;;19.15;11.32;;;;;;;10.10;55.30;99605.56;5091600;28;20103;-70
2022/04/29 06:07:32;;;;;;;24.52;13.52;;;;;;;10.16;55.55;99609.16;5090682;28;20031;-72
2022/04/29 06:09:57;;;;;;;21.30;12.93;;;;;;;10.21;55.91;99607.25;5090875;28;20068;-72
2022/04/29 06:12:23;;;;;;;19.85;12.13;;;;;;;10.23;55.36;99615.22;5090921;28;20038;-72
2022/04/29 06:14:48;;;;;;;21.17;13.38;;;;;;;10.31;54.97;99617.47;5090221;28;20024;-71
2022/04/29 06:17:14;;;;;;;25.05;14.10;;;;;;;10.43;55.01;99611.78;5090649;28;20030;-72
2022/04/29 06:19:39;;;;;;;19.08;12.18;;;;;;;10.51;54.82;99610.44;5091163;28;20039;-72
2022/04/29 06:22:05;;;;;;;23.00;13.43;;;;;;;10.56;55.00;99607.72;5090955;28;20032;-72
2022/04/29 06:24:32;;;;;;;19.75;11.93;;;;;;;10.63;54.38;99615.69;5090887;28;20020;-72
2022/04/29 06:26:57;;;;;;;18.67;11.50;;;;;;;10.68;53.88;99613.81;5090582;28;20031;-72
2022/04/29 06:29:23;;;;;;;19.55;11.88;;;;;;;10.70;53.54;99613.53;5086296;28;20036;-72
2022/04/29 06:31:48;;;;;;;16.25;10.27;;;;;;;10.75;53.98;99610.81;5088415;28;20107;-73
2022/04/29 06:34:14;;;;;;;22.90;12.88;;;;;;;10.82;54.14;99616.88;5088922;28;20073;-73
2022/04/29 06:36:39;;;;;;;17.77;11.43;;;;;;;10.93;53.81;99608.69;5089457;28;20024;-73
2022/04/29 06:39:04;;;;;;;22.35;12.07;;;;;;;11.05;53.92;99611.19;5089842;28;20497;-73
2022/04/29 06:41:30;;;;;;;16.38;9.60;;;;;;;11.09;53.29;99606.81;5088954;28;20097;-72
2022/04/29 06:43:55;;;;;;;18.42;11.30;;;;;;;11.10;53.12;99612.00;5090164;28;20509;-71
2022/04/29 06:46:24;;;;;;;17.50;9.65;;;;;;;11.25;52.94;99618.63;5089321;28;20036;-73
2022/04/29 06:48:50;;;;;;;14.95;10.15;;;;;;;11.28;52.13;99618.91;5089571;28;20644;-72
2022/04/29 06:51:15;;;;;;;13.30;8.40;;;;;;;11.43;52.09;99620.03;5086641;28;20058;-71
2022/04/29 06:53:41;;;;;;;16.25;10.18;;;;;;;11.47;52.51;99621.94;5087024;28;20035;-72
2022/04/29 06:56:06;;;;;;;14.45;9.45;;;;;;;11.56;52.36;99627.75;5089550;28;20515;-72
2022/04/29 06:58:32;;;;;;;15.32;9.10;;;;;;;11.65;52.25;99625.25;5087501;28;20127;-72
2022/04/29 07:00:57;;;;;;;15.65;9.32;;;;;;;11.71;52.46;99626.09;5090186;28;20507;-70
2022/04/29 07:03:23;;;;;;;15.70;9.32;;;;;;;11.76;51.80;99623.34;5087906;28;20021;-73
2022/04/29 07:05:51;;;;;;;17.23;9.68;;;;;;;11.85;52.05;99627.19;5087270;28;20020;-68
2022/04/29 07:08:17;;;;;;;16.27;9.93;;;;;;;11.95;51.28;99626.34;5089463;28;20088;-69
2022/04/29 07:10:42;;;;;;;13.50;8.50;;;;;;;12.05;51.76;99642.03;5087143;28;20032;-72
2022/04/29 07:13:09;;;;;;;15.68;9.30;;;;;;;12.10;50.97;99632.97;5089375;28;20031;-72
2022/04/29 07:15:37;;;;;;;13.63;9.07;;;;;;;12.16;50.65;99643.66;5090045;28;20398;-74
2022/04/29 07:18:03;;;;;;;13.75;8.95;;;;;;;12.19;50.74;99629.38;5089153;28;20016;-72
2022/04/29 07:20:28;;;;;;;13.82;8.05;;;;;;;12.27;48.75;99635.41;5089716;28;20382;-72
2022/04/29 07:22:53;;;;;;;14.18;8.48;;;;;;;12.27;49.04;99638.97;5088343;28;20032;-71
2022/04/29 07:25:19;;;;;;;16.73;8.48;;;;;;;12.33;49.46;99640.59;5089754;28;20126;-71
2022/04/29 07:27:46;;;;;;;14.05;8.32;;;;;;;12.44;49.58;99641.38;5086546;28;21287;-72
2022/04/29 07:30:12;;;;;;;10.13;6.68;;;;;;;12.55;49.54;99642.22;5086170;28;20039;-72
2022/04/29 07:32:37;;;;;;;12.02;7.90;;;;;;;12.58;48.88;99638.91;5087567;28;20024;-72
2022/04/29 07:43:15;;;;;;;12.30;8.15;;;;;;;12.54;48.48;99639.72;5088757;28;20043;-75
2022/04/29 07:45:42;;;;;;;11.98;8.13;;;;;;;12.52;48.39;99637.25;5087305;28;20494;-73
2022/04/29 07:48:08;;;;;;;14.23;8.57;;;;;;;12.45;48.77;99629.28;5088799;28;20082;-73
2022/04/29 07:50:35;;;;;;;13.60;9.05;;;;;;;12.48;48.41;99633.41;5091165;28;20028;-72
2022/04/29 07:53:03;;;;;;;13.25;8.43;;;;;;;12.50;48.91;99633.97;5093266;28;20058;-70
2022/04/29 07:55:29;;;;;;;13.02;8.30;;;;;;;12.51;47.57;99630.91;5092172;28;20040;-71
2022/04/29 07:57:56;;;;;;;14.10;8.95;;;;;;;12.46;47.14;99625.44;5092838;28;20119;-73
2022/04/29 08:00:22;;;;;;;13.23;9.05;;;;;;;12.48;48.06;99623.22;5091144;28;20113;-69
2022/04/29 08:02:48;;;;;;;15.00;9.65;;;;;;;12.53;47.96;99633.41;5090677;28;20469;-73
2022/04/29 08:05:13;;;;;;;13.48;8.95;;;;;;;12.58;47.74;99625.13;5092274;28;20031;-73
2022/04/29 08:07:39;;;;;;;13.80;8.75;;;;;;;12.63;47.76;99624.28;5092176;28;20478;-76
2022/04/29 08:10:05;;;;;;;14.15;8.45;;;;;;;12.72;48.57;99628.09;5092617;28;20036;-74
2022/04/29 08:12:30;;;;;;;12.15;7.97;;;;;;;12.80;47.91;99616.50;5092177;28;20084;-70
2022/04/29 08:14:56;;;;;;;10.32;6.88;;;;;;;12.90;46.61;99623.88;5095510;28;20034;-68
2022/04/29 08:17:22;;;;;;;11.73;7.30;;;;;;;12.94;47.37;99618.63;5091742;28;20110;-74
2022/04/29 08:19:49;;;;;;;8.02;6.05;;;;;;;13.05;47.06;99620.22;5092375;28;20051;-73
2022/04/29 08:22:19;;;;;;;7.88;4.80;;;;;;;13.20;46.61;99610.25;5091957;28;20508;-75
2022/04/29 08:24:44;;;;;;;;;;;;;;;13.32;46.64;99602.41;5092803;28;20512;-75
2022/04/29 08:27:10;;;;;;;9.20;4.53;;;;;;;13.45;43.78;99609.25;5091493;28;19920;-75
2022/04/29 08:29:39;;;;;;;7.18;3.72;;;;;;;13.59;43.96;99605.84;5090525;28;20040;-76
2022/04/29 08:32:05;;;;;;;4.95;3.00;;;;;;;13.72;43.84;99602.44;5092323;28;20032;-73
2022/04/29 08:34:31;;;;;;;4.68;2.80;;;;;;;13.90;40.47;99600.88;5092315;28;20039;-66
2022/04/29 08:36:57;;;;;;;4.65;3.72;;;;;;;14.06;42.57;99604.31;5092737;28;20016;-69
2022/04/29 08:39:22;;;;;;;6.13;3.63;;;;;;;14.16;41.02;99595.09;5090012;28;20035;-75
2022/04/29 08:41:50;;;;;;;6.75;3.80;;;;;;;14.27;40.93;99593.88;5092352;28;20390;-75
2022/04/29 08:44:16;;;;;;;4.05;3.30;;;;;;;14.52;40.52;99594.69;5092300;28;20416;-73
2022/04/29 08:46:43;;;;;;;3.75;2.42;;;;;;;14.73;39.19;99587.00;5090068;28;20497;-72
2022/04/29 08:49:10;;;;;;;6.15;3.03;;;;;;;14.92;39.76;99588.97;5090578;28;20081;-71
2022/04/29 08:51:38;;;;;;;4.80;3.30;;;;;;;15.01;37.52;99591.88;5091513;28;20086;-70
2022/04/29 08:54:04;;;;;;;4.10;2.70;;;;;;;15.26;38.60;99589.88;5091131;28;20024;-72
2022/04/29 08:59:18;;;;;;;4.35;2.60;;;;;;;15.60;37.53;99580.47;5091097;28;20036;-75
2022/04/29 09:01:44;;;;;;;8.23;4.15;;;;;;;15.72;38.07;99582.75;5089453;28;20020;-72
2022/04/29 09:04:09;;;;;;;17.27;11.32;;;;;;;15.77;35.99;99583.50;5089113;28;20485;-74
2022/04/29 09:06:47;;;;;;;6.53;3.78;;;;;;;15.80;34.51;99584.00;5090900;28;20116;-74
2022/04/29 09:09:13;;;;;;;4.90;3.80;;;;;;;15.86;37.05;99582.78;5090973;28;20036;-77
2022/04/29 09:11:38;;;;;;;5.85;3.30;;;;;;;15.89;34.35;99582.22;5091628;28;20024;-72
2022/04/29 09:14:20;;;;;;;4.57;3.33;;;;;;;15.84;35.24;99576.75;5090975;28;20051;-76
2022/04/29 09:16:48;;;;;;;14.23;9.38;;;;;;;15.80;35.79;99581.25;5090573;28;20053;-68
2022/04/29 09:19:36;;;;;;;7.95;4.30;;;;;;;15.79;36.38;99569.38;5089892;28;20038;-72
2022/04/29 09:22:12;;;;;;;11.88;7.82;;;;;;;15.78;35.28;99570.50;5089144;28;20067;-74
2022/04/29 09:24:38;;;;;;;13.85;8.10;;;;;;;15.82;35.78;99579.00;5090422;28;20563;-75
2022/04/29 09:27:05;;;;;;;9.00;4.68;;;;;;;15.76;35.50;99568.03;5090792;28;20076;-76
2022/04/29 09:29:39;;;;;;;6.82;3.55;;;;;;;15.71;35.25;99570.88;5090734;28;20058;-73
2022/04/29 09:32:05;;;;;;;6.10;3.33;;;;;;;15.76;35.41;99570.78;5089786;28;20371;-73
2022/04/29 09:34:53;;;;;;;4.07;2.80;;;;;;;15.92;34.98;99567.78;5090834;28;20030;-72
2022/04/29 09:37:27;;;;;;;5.10;3.03;;;;;;;16.12;36.46;99558.28;5090836;28;20092;-73
2022/04/29 09:40:00;;;;;;;4.22;2.50;;;;;;;16.27;35.78;99557.16;5090127;28;20055;-73
2022/04/29 09:42:40;;;;;;;4.50;2.70;;;;;;;16.27;33.87;99554.38;5089451;28;20028;-71
2022/04/29 09:45:23;;;;;;;4.20;2.80;;;;;;;16.16;33.85;99556.53;5088667;28;20044;-71
2022/04/29 09:47:58;;;;;;;3.75;2.60;;;;;;;16.15;34.09;99556.84;5090683;28;20127;-73
2022/04/29 09:50:52;;;;;;;5.10;2.90;;;;;;;16.04;34.27;99557.03;5090887;28;20069;-72
2022/04/29 09:53:20;;;;;;;6.03;2.50;;;;;;;15.97;34.28;99564.09;5087981;28;20539;-73
2022/04/29 09:56:06;;;;;;;5.72;2.75;;;;;;;15.76;34.76;99561.69;5090024;28;20439;-74
2022/04/29 09:58:32;;;;;;;6.30;3.17;;;;;;;15.63;33.94;99560.53;5092014;28;20043;-73
2022/04/29 10:00:59;;;;;;;5.38;3.05;;;;;;;15.58;33.61;99558.66;5090224;28;20028;-73
2022/04/29 10:03:25;;;;;;;5.88;2.80;;;;;;;15.71;34.80;99556.22;5090825;28;20071;-76
2022/04/29 10:05:51;;;;;;;8.40;3.63;;;;;;;15.92;35.19;99556.72;5088759;28;20111;-76
2022/04/29 10:08:18;;;;;;;6.80;3.72;;;;;;;16.12;35.15;99558.28;5089451;28;20039;-75
2022/04/29 10:10:46;;;;;;;5.53;3.20;;;;;;;16.29;35.19;99552.13;5088745;28;20028;-77
2022/04/29 10:13:14;;;;;;;4.53;3.33;;;;;;;16.47;34.16;99546.81;5087542;28;20511;-75
2022/04/29 10:15:41;;;;;;;7.47;4.28;;;;;;;16.61;35.26;99553.13;5088419;28;20036;-76
2022/04/29 10:23:38;;;;;;;5.18;3.80;;;;;;;16.72;33.48;99541.81;5091740;28;20039;-76
2022/04/29 10:26:04;;;;;;;7.18;3.50;;;;;;;16.66;33.44;99541.94;5091916;28;20028;-76
2022/04/29 10:28:30;;;;;;;5.68;3.55;;;;;;;16.56;33.99;99536.63;5091737;28;20210;-76
2022/04/29 10:31:06;;;;;;;6.03;3.70;;;;;;;16.60;33.48;99545.13;5078236;28;20017;-74
2022/04/29 10:33:32;;;;;;;12.40;7.68;;;;;;;16.73;34.45;99532.38;5090130;28;20393;-74
2022/04/29 10:36:05;;;;;;;5.32;3.47;;;;;;;16.98;34.69;99531.03;5090477;28;20020;-73
2022/04/29 10:38:39;;;;;;;5.93;3.80;;;;;;;17.15;33.49;99538.66;5089767;28;20508;-73
2022/04/29 10:41:10;;;;;;;7.03;3.67;;;;;;;17.18;33.04;99523.34;5089936;28;20620;-72
2022/04/29 10:43:51;;;;;;;15.75;8.30;;;;;;;17.37;33.71;99528.69;5087214;28;20050;-69
2022/04/29 10:46:35;;;;;;;8.13;3.42;;;;;;;17.45;33.67;99521.59;5062650;28;20391;-71
2022/04/29 10:49:25;;;;;;;5.82;3.70;;;;;;;17.39;32.28;99513.41;5066477;28;20036;-70
2022/04/29 10:51:52;;;;;;;6.78;4.03;;;;;;;17.23;32.57;99520.44;5065916;28;20031;-68
2022/04/29 10:54:33;;;;;;;7.45;5.38;;;;;;;16.97;32.13;99515.53;5066156;28;20575;-69
2022/04/29 10:57:12;;;;;;;7.80;3.75;;;;;;;16.96;33.35;99502.81;5066012;28;20531;-68
2022/04/29 10:59:51;;;;;;;;;;;;;;;17.10;34.17;99506.34;5065964;28;20485;-70
2022/04/29 11:02:31;;;;;;;7.63;3.80;;;;;;;17.07;32.67;99500.59;5063796;28;19951;-69
2022/04/29 11:04:58;;;;;;;25.95;13.85;;;;;;;17.17;34.40;99507.84;5063097;28;20104;-69
2022/04/29 11:07:34;;;;;;;12.27;6.45;;;;;;;17.33;34.68;99494.41;5065633;28;20037;-69
2022/04/29 11:10:00;;;;;;;5.57;3.55;;;;;;;17.53;33.83;99502.22;5063617;28;20649;-70
2022/04/29 11:12:37;;;;;;;6.78;3.90;;;;;;;17.75;33.57;99499.72;5064574;28;20017;-71
2022/04/29 11:15:11;;;;;;;5.40;3.30;;;;;;;17.86;33.26;99490.00;5067110;28;20362;-70
2022/04/29 11:17:38;;;;;;;6.25;3.42;;;;;;;18.00;32.70;99490.72;5064123;28;20489;-69
2022/04/29 11:20:16;;;;;;;9.05;4.00;;;;;;;18.06;32.52;99491.41;5060670;28;20090;-70
2022/04/29 11:25:49;;;;;;;6.85;3.72;;;;;;;17.50;32.22;99486.22;5062508;28;20412;-70
2022/04/29 11:28:16;;;;;;;7.07;4.72;;;;;;;17.39;32.80;99487.59;5062616;28;20037;-76
2022/04/29 11:30:42;;;;;;;13.15;7.72;;;;;;;17.34;34.27;99476.63;5062908;28;20031;-78
2022/04/29 11:33:07;;;;;;;11.65;6.75;;;;;;;17.44;34.84;99484.72;5063749;28;20104;-80
2022/04/29 11:35:33;;;;;;;18.88;11.77;;;;;;;17.73;35.12;99477.84;5060832;28;20082;-78
2022/04/29 11:37:59;;;;;;;22.85;11.88;;;;;;;18.02;35.54;99473.75;5063920;28;20021;-81
2022/04/29 11:40:26;;;;;;;13.48;8.10;;;;;;;18.18;35.56;99481.63;5062633;28;20032;-79
2022/04/29 11:42:51;;;;;;;19.42;10.13;;;;;;;18.27;35.14;99474.13;5063802;28;20024;-80
2022/04/29 11:45:21;;;;;;;11.82;7.13;;;;;;;18.43;35.32;99477.28;5065334;28;20056;-80
2022/04/29 11:47:46;;;;;;;;;;;;;;;18.73;35.64;99474.72;5066276;28;20074;-80
2022/04/29 11:50:12;;;;;;;10.18;5.07;;;;;;;18.97;34.96;99468.66;5065484;28;19921;-80
2022/04/29 11:52:39;;;;;;;11.10;7.32;;;;;;;19.15;34.55;99469.50;5065255;28;20035;-81